sensor_id;sensor_type;location;lat;lon;timestamp;P1;durP1;ratioP1;P2;durP2;ratioP2
54241;SDS011;40156;51.080;17.082;2023-05-10T00:02:25;7.90;;;3.85;;
54241;SDS011;40156;51.080;17.082;2023-05-10T00:04:53;6.65;;;3.40;;
54241;SDS011;40156;51.080;17.082;2023-05-10T00:07:21;7.82;;;4.13;;
54241;SDS011;40156;51.080;17.082;2023-05-10T00:09:48;8.52;;;4.20;;
54241;SDS011;40156;51.080;17.082;2023-05-10T00:12:15;7.68;;;3.90;;
54241;SDS011;40156;51.080;17.082;2023-05-10T00:14:43;8.32;;;4.70;;
54241;SDS011;40156;51.080;17.082;2023-05-10T00:17:10;7.53;;;3.60;;
54241;SDS011;40156;51.080;17.082;2023-05-10T00:19:44;8.45;;;4.03;;
54241;SDS011;40156;51.080;17.082;2023-05-10T00:22:12;12.00;;;4.10;;
54241;SDS011;40156;51.080;17.082;2023-05-10T00:27:50;6.93;;;3.88;;
54241;SDS011;40156;51.080;17.082;2023-05-10T00:30:17;6.78;;;3.88;;
54241;SDS011;40156;51.080;17.082;2023-05-10T00:32:45;7.53;;;4.05;;
54241;SDS011;40156;51.080;17.082;2023-05-10T00:35:32;6.45;;;3.88;;
54241;SDS011;40156;51.080;17.082;2023-05-10T00:38:01;5.95;;;3.75;;
54241;SDS011;40156;51.080;17.082;2023-05-10T00:40:28;7.60;;;4.10;;
54241;SDS011;40156;51.080;17.082;2023-05-10T00:42:56;6.68;;;4.13;;
54241;SDS011;40156;51.080;17.082;2023-05-10T00:45:23;5.13;;;3.88;;
54241;SDS011;40156;51.080;17.082;2023-05-10T00:50:46;10.85;;;4.32;;
54241;SDS011;40156;51.080;17.082;2023-05-10T00:53:14;7.43;;;4.22;;
54241;SDS011;40156;51.080;17.082;2023-05-10T00:55:41;5.97;;;4.10;;
54241;SDS011;40156;51.080;17.082;2023-05-10T00:58:09;7.72;;;4.25;;
54241;SDS011;40156;51.080;17.082;2023-05-10T01:00:36;6.03;;;4.10;;
54241;SDS011;40156;51.080;17.082;2023-05-10T01:03:05;5.80;;;3.70;;
54241;SDS011;40156;51.080;17.082;2023-05-10T01:05:32;7.97;;;4.88;;
54241;SDS011;40156;51.080;17.082;2023-05-10T01:08:00;10.30;;;4.38;;
54241;SDS011;40156;51.080;17.082;2023-05-10T01:10:27;7.28;;;4.18;;
54241;SDS011;40156;51.080;17.082;2023-05-10T01:12:55;7.82;;;4.80;;
54241;SDS011;40156;51.080;17.082;2023-05-10T01:15:22;8.02;;;4.50;;
54241;SDS011;40156;51.080;17.082;2023-05-10T01:17:50;9.20;;;4.20;;
54241;SDS011;40156;51.080;17.082;2023-05-10T01:20:18;7.43;;;4.03;;
54241;SDS011;40156;51.080;17.082;2023-05-10T01:23:09;7.88;;;4.38;;
54241;SDS011;40156;51.080;17.082;2023-05-10T01:28:07;9.65;;;4.50;;
54241;SDS011;40156;51.080;17.082;2023-05-10T01:33:21;7.97;;;4.30;;
54241;SDS011;40156;51.080;17.082;2023-05-10T01:35:52;8.48;;;4.53;;
54241;SDS011;40156;51.080;17.082;2023-05-10T01:38:28;7.10;;;4.32;;
54241;SDS011;40156;51.080;17.082;2023-05-10T01:43:26;9.18;;;4.35;;
54241;SDS011;40156;51.080;17.082;2023-05-10T01:48:22;12.32;;;4.63;;
54241;SDS011;40156;51.080;17.082;2023-05-10T01:50:50;10.00;;;5.00;;
54241;SDS011;40156;51.080;17.082;2023-05-10T01:53:18;10.80;;;4.60;;
54241;SDS011;40156;51.080;17.082;2023-05-10T01:55:53;7.40;;;4.68;;
54241;SDS011;40156;51.080;17.082;2023-05-10T01:58:23;6.72;;;4.25;;
54241;SDS011;40156;51.080;17.082;2023-05-10T02:00:51;9.35;;;4.53;;
54241;SDS011;40156;51.080;17.082;2023-05-10T02:03:23;9.88;;;4.30;;
54241;SDS011;40156;51.080;17.082;2023-05-10T02:05:50;8.18;;;4.60;;
54241;SDS011;40156;51.080;17.082;2023-05-10T02:08:19;9.10;;;4.68;;
54241;SDS011;40156;51.080;17.082;2023-05-10T02:10:47;7.35;;;4.13;;
54241;SDS011;40156;51.080;17.082;2023-05-10T02:13:16;6.95;;;3.95;;
54241;SDS011;40156;51.080;17.082;2023-05-10T02:15:46;7.45;;;4.55;;
54241;SDS011;40156;51.080;17.082;2023-05-10T02:18:15;7.53;;;4.13;;
54241;SDS011;40156;51.080;17.082;2023-05-10T02:20:44;8.07;;;4.07;;
54241;SDS011;40156;51.080;17.082;2023-05-10T02:29:10;7.97;;;4.43;;
54241;SDS011;40156;51.080;17.082;2023-05-10T02:31:37;8.63;;;4.10;;
54241;SDS011;40156;51.080;17.082;2023-05-10T02:34:06;7.95;;;4.60;;
54241;SDS011;40156;51.080;17.082;2023-05-10T02:36:34;10.80;;;4.88;;
54241;SDS011;40156;51.080;17.082;2023-05-10T02:39:01;9.05;;;4.60;;
54241;SDS011;40156;51.080;17.082;2023-05-10T02:41:29;9.38;;;4.55;;
54241;SDS011;40156;51.080;17.082;2023-05-10T02:43:59;10.82;;;4.78;;
54241;SDS011;40156;51.080;17.082;2023-05-10T02:46:26;6.80;;;4.05;;
54241;SDS011;40156;51.080;17.082;2023-05-10T02:48:54;8.23;;;4.45;;
54241;SDS011;40156;51.080;17.082;2023-05-10T02:51:21;8.10;;;4.32;;
54241;SDS011;40156;51.080;17.082;2023-05-10T02:53:51;7.68;;;4.22;;
54241;SDS011;40156;51.080;17.082;2023-05-10T02:56:23;9.45;;;4.43;;
54241;SDS011;40156;51.080;17.082;2023-05-10T02:58:52;8.20;;;4.35;;
54241;SDS011;40156;51.080;17.082;2023-05-10T03:01:20;9.85;;;4.70;;
54241;SDS011;40156;51.080;17.082;2023-05-10T03:04:03;11.43;;;4.32;;
54241;SDS011;40156;51.080;17.082;2023-05-10T03:13:25;7.85;;;4.47;;
54241;SDS011;40156;51.080;17.082;2023-05-10T03:21:24;11.45;;;4.70;;
54241;SDS011;40156;51.080;17.082;2023-05-10T03:23:56;8.50;;;4.65;;
54241;SDS011;40156;51.080;17.082;2023-05-10T03:26:26;8.13;;;4.25;;
54241;SDS011;40156;51.080;17.082;2023-05-10T03:28:53;8.25;;;4.88;;
54241;SDS011;40156;51.080;17.082;2023-05-10T03:31:21;8.98;;;4.70;;
54241;SDS011;40156;51.080;17.082;2023-05-10T03:33:49;7.93;;;3.83;;
54241;SDS011;40156;51.080;17.082;2023-05-10T03:36:16;8.93;;;4.03;;
54241;SDS011;40156;51.080;17.082;2023-05-10T03:38:44;8.60;;;4.50;;
54241;SDS011;40156;51.080;17.082;2023-05-10T03:41:11;8.68;;;4.43;;
54241;SDS011;40156;51.080;17.082;2023-05-10T03:43:39;9.93;;;4.68;;
54241;SDS011;40156;51.080;17.082;2023-05-10T03:46:13;8.23;;;4.20;;
54241;SDS011;40156;51.080;17.082;2023-05-10T03:48:41;12.13;;;5.43;;
54241;SDS011;40156;51.080;17.082;2023-05-10T03:51:08;9.90;;;4.30;;
54241;SDS011;40156;51.080;17.082;2023-05-10T03:53:35;8.85;;;4.53;;
54241;SDS011;40156;51.080;17.082;2023-05-10T03:56:03;9.05;;;4.40;;
54241;SDS011;40156;51.080;17.082;2023-05-10T03:58:30;7.97;;;4.40;;
54241;SDS011;40156;51.080;17.082;2023-05-10T04:00:57;7.93;;;3.97;;
54241;SDS011;40156;51.080;17.082;2023-05-10T04:03:25;8.50;;;4.40;;
54241;SDS011;40156;51.080;17.082;2023-05-10T04:05:59;8.00;;;4.13;;
54241;SDS011;40156;51.080;17.082;2023-05-10T04:08:27;6.18;;;4.10;;
54241;SDS011;40156;51.080;17.082;2023-05-10T04:10:54;10.38;;;4.30;;
54241;SDS011;40156;51.080;17.082;2023-05-10T04:13:21;7.95;;;3.80;;
54241;SDS011;40156;51.080;17.082;2023-05-10T04:15:49;11.60;;;4.18;;
54241;SDS011;40156;51.080;17.082;2023-05-10T04:18:16;8.98;;;4.38;;
54241;SDS011;40156;51.080;17.082;2023-05-10T04:20:43;8.57;;;4.25;;
54241;SDS011;40156;51.080;17.082;2023-05-10T04:23:11;7.45;;;4.65;;
54241;SDS011;40156;51.080;17.082;2023-05-10T04:25:38;9.05;;;4.43;;
54241;SDS011;40156;51.080;17.082;2023-05-10T04:28:06;9.48;;;4.75;;
54241;SDS011;40156;51.080;17.082;2023-05-10T04:30:33;11.35;;;4.57;;
54241;SDS011;40156;51.080;17.082;2023-05-10T04:33:00;6.68;;;4.55;;
54241;SDS011;40156;51.080;17.082;2023-05-10T04:35:28;6.65;;;3.85;;
54241;SDS011;40156;51.080;17.082;2023-05-10T04:37:55;9.27;;;4.95;;
54241;SDS011;40156;51.080;17.082;2023-05-10T04:40:22;9.38;;;4.80;;
54241;SDS011;40156;51.080;17.082;2023-05-10T04:42:50;8.38;;;4.65;;
54241;SDS011;40156;51.080;17.082;2023-05-10T04:45:17;8.50;;;4.63;;
54241;SDS011;40156;51.080;17.082;2023-05-10T04:47:52;13.15;;;4.57;;
54241;SDS011;40156;51.080;17.082;2023-05-10T04:50:20;12.15;;;4.05;;
54241;SDS011;40156;51.080;17.082;2023-05-10T04:52:49;9.93;;;4.80;;
54241;SDS011;40156;51.080;17.082;2023-05-10T04:55:17;8.38;;;4.60;;
54241;SDS011;40156;51.080;17.082;2023-05-10T04:57:45;9.15;;;4.53;;
54241;SDS011;40156;51.080;17.082;2023-05-10T05:00:12;8.40;;;4.60;;
54241;SDS011;40156;51.080;17.082;2023-05-10T05:02:43;7.20;;;4.53;;
54241;SDS011;40156;51.080;17.082;2023-05-10T05:05:10;8.07;;;4.25;;
54241;SDS011;40156;51.080;17.082;2023-05-10T05:07:38;14.23;;;4.55;;
54241;SDS011;40156;51.080;17.082;2023-05-10T05:10:12;8.88;;;4.43;;
54241;SDS011;40156;51.080;17.082;2023-05-10T05:12:40;10.77;;;4.70;;
54241;SDS011;40156;51.080;17.082;2023-05-10T05:18:05;8.43;;;4.03;;
54241;SDS011;40156;51.080;17.082;2023-05-10T05:20:33;11.32;;;4.63;;
54241;SDS011;40156;51.080;17.082;2023-05-10T05:23:00;6.82;;;4.55;;
54241;SDS011;40156;51.080;17.082;2023-05-10T05:25:28;11.80;;;5.28;;
54241;SDS011;40156;51.080;17.082;2023-05-10T05:27:55;7.70;;;4.47;;
54241;SDS011;40156;51.080;17.082;2023-05-10T05:30:22;7.18;;;4.90;;
54241;SDS011;40156;51.080;17.082;2023-05-10T05:32:50;10.13;;;5.07;;
54241;SDS011;40156;51.080;17.082;2023-05-10T05:35:17;10.07;;;4.82;;
54241;SDS011;40156;51.080;17.082;2023-05-10T05:37:45;6.55;;;3.78;;
54241;SDS011;40156;51.080;17.082;2023-05-10T05:40:12;8.95;;;4.40;;
54241;SDS011;40156;51.080;17.082;2023-05-10T05:42:40;10.63;;;4.55;;
54241;SDS011;40156;51.080;17.082;2023-05-10T05:45:07;10.65;;;4.70;;
54241;SDS011;40156;51.080;17.082;2023-05-10T05:47:35;12.18;;;4.65;;
54241;SDS011;40156;51.080;17.082;2023-05-10T05:50:14;9.02;;;5.00;;
54241;SDS011;40156;51.080;17.082;2023-05-10T05:52:42;12.30;;;4.35;;
54241;SDS011;40156;51.080;17.082;2023-05-10T05:55:09;8.25;;;4.47;;
54241;SDS011;40156;51.080;17.082;2023-05-10T05:57:37;10.32;;;5.10;;
54241;SDS011;40156;51.080;17.082;2023-05-10T06:00:05;9.20;;;4.32;;
54241;SDS011;40156;51.080;17.082;2023-05-10T06:06:14;7.65;;;4.28;;
54241;SDS011;40156;51.080;17.082;2023-05-10T06:08:41;8.30;;;4.00;;
54241;SDS011;40156;51.080;17.082;2023-05-10T06:11:09;8.23;;;4.07;;
54241;SDS011;40156;51.080;17.082;2023-05-10T06:13:36;6.35;;;4.20;;
54241;SDS011;40156;51.080;17.082;2023-05-10T06:16:03;7.55;;;3.83;;
54241;SDS011;40156;51.080;17.082;2023-05-10T06:18:31;7.70;;;4.03;;
54241;SDS011;40156;51.080;17.082;2023-05-10T06:20:58;8.27;;;4.15;;
54241;SDS011;40156;51.080;17.082;2023-05-10T06:23:26;8.25;;;4.63;;
54241;SDS011;40156;51.080;17.082;2023-05-10T06:28:39;6.43;;;4.07;;
54241;SDS011;40156;51.080;17.082;2023-05-10T06:31:07;6.25;;;3.80;;
54241;SDS011;40156;51.080;17.082;2023-05-10T06:33:34;9.18;;;3.70;;
54241;SDS011;40156;51.080;17.082;2023-05-10T06:36:01;6.57;;;4.15;;
54241;SDS011;40156;51.080;17.082;2023-05-10T06:38:29;13.02;;;4.07;;
54241;SDS011;40156;51.080;17.082;2023-05-10T06:40:56;6.65;;;3.55;;
54241;SDS011;40156;51.080;17.082;2023-05-10T06:43:24;5.82;;;3.67;;
54241;SDS011;40156;51.080;17.082;2023-05-10T06:45:51;6.90;;;4.07;;
54241;SDS011;40156;51.080;17.082;2023-05-10T06:48:19;5.15;;;3.55;;
54241;SDS011;40156;51.080;17.082;2023-05-10T06:50:46;7.57;;;3.38;;
54241;SDS011;40156;51.080;17.082;2023-05-10T06:53:14;7.13;;;3.88;;
54241;SDS011;40156;51.080;17.082;2023-05-10T06:55:41;8.18;;;3.95;;
54241;SDS011;40156;51.080;17.082;2023-05-10T06:58:09;4.28;;;3.30;;
54241;SDS011;40156;51.080;17.082;2023-05-10T07:00:36;5.00;;;3.30;;
54241;SDS011;40156;51.080;17.082;2023-05-10T07:03:07;6.95;;;3.40;;
54241;SDS011;40156;51.080;17.082;2023-05-10T07:05:35;7.20;;;3.17;;
54241;SDS011;40156;51.080;17.082;2023-05-10T07:08:03;5.72;;;3.30;;
54241;SDS011;40156;51.080;17.082;2023-05-10T07:10:31;6.55;;;3.30;;
54241;SDS011;40156;51.080;17.082;2023-05-10T07:12:59;5.82;;;3.72;;
54241;SDS011;40156;51.080;17.082;2023-05-10T07:15:26;6.07;;;3.50;;
54241;SDS011;40156;51.080;17.082;2023-05-10T07:17:54;6.38;;;3.65;;
54241;SDS011;40156;51.080;17.082;2023-05-10T07:20:21;4.63;;;3.25;;
54241;SDS011;40156;51.080;17.082;2023-05-10T07:22:48;9.18;;;3.72;;
54241;SDS011;40156;51.080;17.082;2023-05-10T07:25:16;4.90;;;3.70;;
54241;SDS011;40156;51.080;17.082;2023-05-10T07:27:44;8.40;;;3.70;;
54241;SDS011;40156;51.080;17.082;2023-05-10T07:30:11;6.68;;;3.30;;
54241;SDS011;40156;51.080;17.082;2023-05-10T07:32:39;4.60;;;3.50;;
54241;SDS011;40156;51.080;17.082;2023-05-10T07:35:07;5.35;;;3.50;;
54241;SDS011;40156;51.080;17.082;2023-05-10T07:37:34;5.60;;;3.22;;
54241;SDS011;40156;51.080;17.082;2023-05-10T07:40:02;4.55;;;3.00;;
54241;SDS011;40156;51.080;17.082;2023-05-10T07:42:29;6.07;;;3.42;;
54241;SDS011;40156;51.080;17.082;2023-05-10T07:44:56;5.65;;;3.28;;
54241;SDS011;40156;51.080;17.082;2023-05-10T07:47:27;6.57;;;2.50;;
54241;SDS011;40156;51.080;17.082;2023-05-10T07:49:54;4.82;;;2.92;;
54241;SDS011;40156;51.080;17.082;2023-05-10T07:52:22;4.43;;;3.05;;
54241;SDS011;40156;51.080;17.082;2023-05-10T07:54:49;4.43;;;2.83;;
54241;SDS011;40156;51.080;17.082;2023-05-10T07:57:17;6.57;;;3.40;;
54241;SDS011;40156;51.080;17.082;2023-05-10T07:59:44;7.30;;;2.88;;
54241;SDS011;40156;51.080;17.082;2023-05-10T08:02:12;6.43;;;3.53;;
54241;SDS011;40156;51.080;17.082;2023-05-10T08:04:39;5.78;;;2.75;;
54241;SDS011;40156;51.080;17.082;2023-05-10T08:07:07;7.25;;;2.95;;
54241;SDS011;40156;51.080;17.082;2023-05-10T08:09:35;4.65;;;2.88;;
54241;SDS011;40156;51.080;17.082;2023-05-10T08:12:04;6.75;;;2.60;;
54241;SDS011;40156;51.080;17.082;2023-05-10T08:14:31;6.07;;;2.65;;
54241;SDS011;40156;51.080;17.082;2023-05-10T08:16:59;3.63;;;2.88;;
54241;SDS011;40156;51.080;17.082;2023-05-10T08:19:29;4.50;;;2.90;;
54241;SDS011;40156;51.080;17.082;2023-05-10T08:21:56;5.35;;;2.88;;
54241;SDS011;40156;51.080;17.082;2023-05-10T08:24:23;4.65;;;2.20;;
54241;SDS011;40156;51.080;17.082;2023-05-10T08:26:51;3.13;;;2.50;;
54241;SDS011;40156;51.080;17.082;2023-05-10T08:29:18;5.15;;;2.55;;
54241;SDS011;40156;51.080;17.082;2023-05-10T08:31:46;3.78;;;2.33;;
54241;SDS011;40156;51.080;17.082;2023-05-10T08:34:13;3.95;;;2.85;;
54241;SDS011;40156;51.080;17.082;2023-05-10T08:36:41;9.63;;;2.40;;
54241;SDS011;40156;51.080;17.082;2023-05-10T08:39:08;4.75;;;2.70;;
54241;SDS011;40156;51.080;17.082;2023-05-10T08:41:55;3.15;;;2.47;;
54241;SDS011;40156;51.080;17.082;2023-05-10T08:44:25;2.92;;;2.15;;
54241;SDS011;40156;51.080;17.082;2023-05-10T08:46:53;3.13;;;2.30;;
54241;SDS011;40156;51.080;17.082;2023-05-10T08:49:22;2.97;;;2.38;;
54241;SDS011;40156;51.080;17.082;2023-05-10T08:51:51;6.15;;;2.80;;
54241;SDS011;40156;51.080;17.082;2023-05-10T08:54:19;7.57;;;2.72;;
54241;SDS011;40156;51.080;17.082;2023-05-10T08:56:46;3.35;;;2.85;;
54241;SDS011;40156;51.080;17.082;2023-05-10T08:59:15;4.15;;;2.67;;
54241;SDS011;40156;51.080;17.082;2023-05-10T09:01:43;5.25;;;2.78;;
54241;SDS011;40156;51.080;17.082;2023-05-10T09:04:12;3.95;;;2.15;;
54241;SDS011;40156;51.080;17.082;2023-05-10T09:06:40;4.25;;;2.20;;
54241;SDS011;40156;51.080;17.082;2023-05-10T09:09:07;4.55;;;2.60;;
54241;SDS011;40156;51.080;17.082;2023-05-10T09:11:35;2.72;;;2.25;;
54241;SDS011;40156;51.080;17.082;2023-05-10T09:14:02;3.45;;;2.47;;
54241;SDS011;40156;51.080;17.082;2023-05-10T09:16:30;3.78;;;2.60;;
54241;SDS011;40156;51.080;17.082;2023-05-10T09:18:57;3.83;;;2.28;;
54241;SDS011;40156;51.080;17.082;2023-05-10T09:21:25;8.02;;;2.50;;
54241;SDS011;40156;51.080;17.082;2023-05-10T09:23:53;8.48;;;2.42;;
54241;SDS011;40156;51.080;17.082;2023-05-10T09:26:23;3.28;;;2.55;;
54241;SDS011;40156;51.080;17.082;2023-05-10T09:28:51;4.03;;;2.40;;
54241;SDS011;40156;51.080;17.082;2023-05-10T09:31:20;4.68;;;2.50;;
54241;SDS011;40156;51.080;17.082;2023-05-10T09:33:48;4.32;;;2.65;;
54241;SDS011;40156;51.080;17.082;2023-05-10T09:36:16;6.97;;;2.53;;
54241;SDS011;40156;51.080;17.082;2023-05-10T09:38:46;3.67;;;2.50;;
54241;SDS011;40156;51.080;17.082;2023-05-10T09:41:17;3.17;;;2.70;;
54241;SDS011;40156;51.080;17.082;2023-05-10T09:43:45;4.03;;;2.17;;
54241;SDS011;40156;51.080;17.082;2023-05-10T09:46:12;4.13;;;2.67;;
54241;SDS011;40156;51.080;17.082;2023-05-10T09:48:43;4.93;;;2.38;;
54241;SDS011;40156;51.080;17.082;2023-05-10T09:51:21;7.38;;;2.60;;
54241;SDS011;40156;51.080;17.082;2023-05-10T09:53:48;2.83;;;2.30;;
54241;SDS011;40156;51.080;17.082;2023-05-10T09:56:37;4.65;;;2.38;;
54241;SDS011;40156;51.080;17.082;2023-05-10T09:59:05;3.95;;;2.78;;
54241;SDS011;40156;51.080;17.082;2023-05-10T10:01:33;3.60;;;2.20;;
54241;SDS011;40156;51.080;17.082;2023-05-10T10:04:04;3.58;;;2.03;;
54241;SDS011;40156;51.080;17.082;2023-05-10T10:06:39;4.53;;;2.00;;
54241;SDS011;40156;51.080;17.082;2023-05-10T10:09:06;4.28;;;2.60;;
54241;SDS011;40156;51.080;17.082;2023-05-10T10:11:37;2.70;;;2.22;;
54241;SDS011;40156;51.080;17.082;2023-05-10T10:14:05;3.20;;;2.22;;
54241;SDS011;40156;51.080;17.082;2023-05-10T10:16:32;4.45;;;1.90;;
54241;SDS011;40156;51.080;17.082;2023-05-10T10:19:00;3.55;;;2.55;;
54241;SDS011;40156;51.080;17.082;2023-05-10T10:21:28;5.07;;;2.95;;
54241;SDS011;40156;51.080;17.082;2023-05-10T10:23:55;3.20;;;2.45;;
54241;SDS011;40156;51.080;17.082;2023-05-10T10:26:22;5.03;;;2.60;;
54241;SDS011;40156;51.080;17.082;2023-05-10T10:31:40;3.50;;;1.90;;
54241;SDS011;40156;51.080;17.082;2023-05-10T10:34:17;5.47;;;2.33;;
54241;SDS011;40156;51.080;17.082;2023-05-10T10:36:49;4.55;;;2.20;;
54241;SDS011;40156;51.080;17.082;2023-05-10T10:39:16;4.80;;;2.55;;
54241;SDS011;40156;51.080;17.082;2023-05-10T10:41:53;3.30;;;2.40;;
54241;SDS011;40156;51.080;17.082;2023-05-10T10:47:32;4.85;;;2.17;;
54241;SDS011;40156;51.080;17.082;2023-05-10T10:52:13;3.35;;;2.25;;
54241;SDS011;40156;51.080;17.082;2023-05-10T10:54:41;2.85;;;2.17;;
54241;SDS011;40156;51.080;17.082;2023-05-10T10:57:12;3.58;;;2.13;;
54241;SDS011;40156;51.080;17.082;2023-05-10T10:59:43;4.23;;;2.00;;
54241;SDS011;40156;51.080;17.082;2023-05-10T11:04:41;3.97;;;2.67;;
54241;SDS011;40156;51.080;17.082;2023-05-10T11:07:16;4.63;;;2.22;;
54241;SDS011;40156;51.080;17.082;2023-05-10T11:09:43;4.65;;;2.40;;
54241;SDS011;40156;51.080;17.082;2023-05-10T11:12:11;3.63;;;1.70;;
54241;SDS011;40156;51.080;17.082;2023-05-10T11:14:41;3.03;;;1.98;;
54241;SDS011;40156;51.080;17.082;2023-05-10T11:17:21;2.08;;;1.88;;
54241;SDS011;40156;51.080;17.082;2023-05-10T11:22:51;1.90;;;1.80;;
54241;SDS011;40156;51.080;17.082;2023-05-10T11:25:18;2.55;;;2.10;;
54241;SDS011;40156;51.080;17.082;2023-05-10T11:27:49;4.40;;;2.13;;
54241;SDS011;40156;51.080;17.082;2023-05-10T11:30:18;1.75;;;1.63;;
54241;SDS011;40156;51.080;17.082;2023-05-10T11:32:46;5.22;;;2.10;;
54241;SDS011;40156;51.080;17.082;2023-05-10T11:35:14;4.35;;;2.20;;
54241;SDS011;40156;51.080;17.082;2023-05-10T11:37:41;4.90;;;2.20;;
54241;SDS011;40156;51.080;17.082;2023-05-10T11:40:09;5.25;;;2.10;;
54241;SDS011;40156;51.080;17.082;2023-05-10T11:42:37;6.95;;;2.28;;
54241;SDS011;40156;51.080;17.082;2023-05-10T11:45:05;4.75;;;2.30;;
54241;SDS011;40156;51.080;17.082;2023-05-10T11:47:32;3.40;;;2.10;;
54241;SDS011;40156;51.080;17.082;2023-05-10T11:50:00;6.30;;;2.85;;
54241;SDS011;40156;51.080;17.082;2023-05-10T11:52:27;2.80;;;1.90;;
54241;SDS011;40156;51.080;17.082;2023-05-10T11:54:55;3.67;;;2.10;;
54241;SDS011;40156;51.080;17.082;2023-05-10T11:57:26;4.97;;;2.35;;
54241;SDS011;40156;51.080;17.082;2023-05-10T11:59:53;5.13;;;2.00;;
54241;SDS011;40156;51.080;17.082;2023-05-10T12:02:21;2.22;;;1.70;;
54241;SDS011;40156;51.080;17.082;2023-05-10T12:04:49;2.83;;;1.70;;
54241;SDS011;40156;51.080;17.082;2023-05-10T12:07:17;4.25;;;2.03;;
54241;SDS011;40156;51.080;17.082;2023-05-10T12:09:44;1.98;;;1.60;;
54241;SDS011;40156;51.080;17.082;2023-05-10T12:12:35;3.38;;;1.77;;
54241;SDS011;40156;51.080;17.082;2023-05-10T12:15:03;2.97;;;2.00;;
54241;SDS011;40156;51.080;17.082;2023-05-10T12:17:31;3.25;;;1.80;;
54241;SDS011;40156;51.080;17.082;2023-05-10T12:19:59;4.30;;;1.60;;
54241;SDS011;40156;51.080;17.082;2023-05-10T12:22:26;2.65;;;1.67;;
54241;SDS011;40156;51.080;17.082;2023-05-10T12:24:53;5.80;;;2.45;;
54241;SDS011;40156;51.080;17.082;2023-05-10T12:27:21;2.17;;;1.98;;
54241;SDS011;40156;51.080;17.082;2023-05-10T12:29:48;2.42;;;1.60;;
54241;SDS011;40156;51.080;17.082;2023-05-10T12:32:16;1.80;;;1.65;;
54241;SDS011;40156;51.080;17.082;2023-05-10T12:34:43;3.08;;;2.15;;
54241;SDS011;40156;51.080;17.082;2023-05-10T12:37:13;2.42;;;1.80;;
54241;SDS011;40156;51.080;17.082;2023-05-10T12:39:41;2.05;;;1.67;;
54241;SDS011;40156;51.080;17.082;2023-05-10T12:42:09;4.22;;;1.80;;
54241;SDS011;40156;51.080;17.082;2023-05-10T12:44:37;6.25;;;1.83;;
54241;SDS011;40156;51.080;17.082;2023-05-10T12:47:04;4.55;;;1.77;;
54241;SDS011;40156;51.080;17.082;2023-05-10T12:49:32;2.17;;;1.70;;
54241;SDS011;40156;51.080;17.082;2023-05-10T12:51:59;4.90;;;1.63;;
54241;SDS011;40156;51.080;17.082;2023-05-10T12:54:26;2.63;;;1.60;;
54241;SDS011;40156;51.080;17.082;2023-05-10T12:56:54;4.63;;;2.25;;
54241;SDS011;40156;51.080;17.082;2023-05-10T12:59:21;3.92;;;1.75;;
54241;SDS011;40156;51.080;17.082;2023-05-10T13:01:49;2.25;;;1.75;;
54241;SDS011;40156;51.080;17.082;2023-05-10T13:04:16;4.22;;;1.80;;
54241;SDS011;40156;51.080;17.082;2023-05-10T13:06:43;3.42;;;1.80;;
54241;SDS011;40156;51.080;17.082;2023-05-10T13:09:11;3.10;;;1.77;;
54241;SDS011;40156;51.080;17.082;2023-05-10T13:11:38;1.80;;;1.63;;
54241;SDS011;40156;51.080;17.082;2023-05-10T13:14:06;2.33;;;1.80;;
54241;SDS011;40156;51.080;17.082;2023-05-10T13:16:33;2.63;;;1.70;;
54241;SDS011;40156;51.080;17.082;2023-05-10T13:19:01;2.95;;;1.40;;
54241;SDS011;40156;51.080;17.082;2023-05-10T13:21:30;7.22;;;1.58;;
54241;SDS011;40156;51.080;17.082;2023-05-10T13:23:58;2.00;;;1.75;;
54241;SDS011;40156;51.080;17.082;2023-05-10T13:26:25;3.75;;;1.90;;
54241;SDS011;40156;51.080;17.082;2023-05-10T13:28:53;1.88;;;1.67;;
54241;SDS011;40156;51.080;17.082;2023-05-10T13:31:20;2.80;;;1.65;;
54241;SDS011;40156;51.080;17.082;2023-05-10T13:33:48;5.90;;;1.58;;
54241;SDS011;40156;51.080;17.082;2023-05-10T13:36:16;2.78;;;1.70;;
54241;SDS011;40156;51.080;17.082;2023-05-10T13:38:43;2.85;;;1.55;;
54241;SDS011;40156;51.080;17.082;2023-05-10T13:41:18;3.90;;;1.70;;
54241;SDS011;40156;51.080;17.082;2023-05-10T13:43:45;2.60;;;1.73;;
54241;SDS011;40156;51.080;17.082;2023-05-10T13:46:13;2.35;;;1.70;;
54241;SDS011;40156;51.080;17.082;2023-05-10T13:48:40;1.95;;;1.70;;
54241;SDS011;40156;51.080;17.082;2023-05-10T13:51:08;3.35;;;1.42;;
54241;SDS011;40156;51.080;17.082;2023-05-10T13:53:35;1.33;;;1.23;;
54241;SDS011;40156;51.080;17.082;2023-05-10T13:56:03;1.75;;;1.42;;
54241;SDS011;40156;51.080;17.082;2023-05-10T13:58:30;1.65;;;1.50;;
54241;SDS011;40156;51.080;17.082;2023-05-10T14:00:58;3.88;;;1.60;;
54241;SDS011;40156;51.080;17.082;2023-05-10T14:03:28;2.92;;;1.77;;
54241;SDS011;40156;51.080;17.082;2023-05-10T14:05:56;3.38;;;1.77;;
54241;SDS011;40156;51.080;17.082;2023-05-10T14:08:27;3.53;;;1.38;;
54241;SDS011;40156;51.080;17.082;2023-05-10T14:10:57;2.10;;;1.40;;
54241;SDS011;40156;51.080;17.082;2023-05-10T14:13:24;1.55;;;1.30;;
54241;SDS011;40156;51.080;17.082;2023-05-10T14:15:52;1.88;;;1.42;;
54241;SDS011;40156;51.080;17.082;2023-05-10T14:18:20;3.13;;;1.50;;
54241;SDS011;40156;51.080;17.082;2023-05-10T14:20:47;4.00;;;1.95;;
54241;SDS011;40156;51.080;17.082;2023-05-10T14:23:15;1.83;;;1.50;;
54241;SDS011;40156;51.080;17.082;2023-05-10T14:29:01;2.05;;;1.52;;
54241;SDS011;40156;51.080;17.082;2023-05-10T14:31:28;1.80;;;1.35;;
54241;SDS011;40156;51.080;17.082;2023-05-10T14:33:56;1.60;;;1.25;;
54241;SDS011;40156;51.080;17.082;2023-05-10T14:36:23;1.65;;;1.42;;
54241;SDS011;40156;51.080;17.082;2023-05-10T14:38:50;2.03;;;1.50;;
54241;SDS011;40156;51.080;17.082;2023-05-10T14:41:18;3.65;;;1.40;;
54241;SDS011;40156;51.080;17.082;2023-05-10T14:43:45;2.35;;;1.40;;
54241;SDS011;40156;51.080;17.082;2023-05-10T14:46:13;4.68;;;1.50;;
54241;SDS011;40156;51.080;17.082;2023-05-10T14:48:40;2.00;;;1.50;;
54241;SDS011;40156;51.080;17.082;2023-05-10T14:51:08;2.47;;;1.50;;
54241;SDS011;40156;51.080;17.082;2023-05-10T14:53:35;3.85;;;1.45;;
54241;SDS011;40156;51.080;17.082;2023-05-10T14:56:03;1.73;;;1.33;;
54241;SDS011;40156;51.080;17.082;2023-05-10T14:58:30;1.92;;;1.60;;
54241;SDS011;40156;51.080;17.082;2023-05-10T15:01:00;1.40;;;1.23;;
54241;SDS011;40156;51.080;17.082;2023-05-10T15:03:28;2.55;;;1.30;;
54241;SDS011;40156;51.080;17.082;2023-05-10T15:05:57;2.15;;;1.30;;
54241;SDS011;40156;51.080;17.082;2023-05-10T15:08:30;1.75;;;1.23;;
54241;SDS011;40156;51.080;17.082;2023-05-10T15:10:58;1.65;;;1.33;;
54241;SDS011;40156;51.080;17.082;2023-05-10T15:13:25;2.78;;;1.30;;
54241;SDS011;40156;51.080;17.082;2023-05-10T15:15:52;2.95;;;1.42;;
54241;SDS011;40156;51.080;17.082;2023-05-10T15:18:20;1.50;;;1.30;;
54241;SDS011;40156;51.080;17.082;2023-05-10T15:20:48;3.85;;;1.15;;
54241;SDS011;40156;51.080;17.082;2023-05-10T15:23:15;1.50;;;1.40;;
54241;SDS011;40156;51.080;17.082;2023-05-10T15:25:43;2.97;;;1.30;;
54241;SDS011;40156;51.080;17.082;2023-05-10T15:28:12;2.35;;;1.50;;
54241;SDS011;40156;51.080;17.082;2023-05-10T15:30:40;2.85;;;1.75;;
54241;SDS011;40156;51.080;17.082;2023-05-10T15:33:08;1.98;;;1.30;;
54241;SDS011;40156;51.080;17.082;2023-05-10T15:35:39;1.77;;;1.30;;
54241;SDS011;40156;51.080;17.082;2023-05-10T15:38:09;1.42;;;1.27;;
54241;SDS011;40156;51.080;17.082;2023-05-10T15:40:37;1.63;;;1.42;;
54241;SDS011;40156;51.080;17.082;2023-05-10T15:43:04;1.95;;;1.30;;